createdAt,value
2018-05-27T00:00:11.396Z,94.26
2018-05-27T00:01:11.386Z,94.35
2018-05-27T00:02:11.390Z,94.35
2018-05-27T00:03:11.373Z,94.64
2018-05-27T00:04:11.391Z,94.35
2018-05-27T00:05:11.112Z,94.54
2018-05-27T00:06:11.354Z,94.54
2018-05-27T00:07:11.376Z,94.35
2018-05-27T00:08:11.349Z,94.54
2018-05-27T00:09:11.353Z,94.45
2018-05-27T00:10:11.344Z,94.07
2018-05-27T00:11:11.374Z,93.97
2018-05-27T00:12:11.360Z,93.97
2018-05-27T00:13:11.337Z,94.16
2018-05-27T00:14:11.349Z,94.54
2018-05-27T00:15:11.325Z,94.16
2018-05-27T00:16:11.342Z,93.77
2018-05-27T00:17:11.323Z,94.16
2018-05-27T00:18:11.334Z,94.16
2018-05-27T00:19:11.311Z,94.64
2018-05-27T00:20:11.326Z,94.07
2018-05-27T00:21:11.301Z,94.35
2018-05-27T00:22:11.075Z,94.35
2018-05-27T00:23:11.296Z,94.45
2018-05-27T00:24:11.312Z,94.07
2018-05-27T00:25:11.304Z,94.74
2018-05-27T00:26:11.371Z,94.64
2018-05-27T00:27:11.283Z,94.74
2018-05-27T00:28:11.284Z,94.64
2018-05-27T00:29:11.295Z,94.35
2018-05-27T00:30:11.304Z,94.35
2018-05-27T00:31:11.268Z,94.74
2018-05-27T00:32:11.283Z,94.64
2018-05-27T00:33:11.264Z,94.74
2018-05-27T00:34:11.274Z,94.74
2018-05-27T00:35:11.252Z,94.64
2018-05-27T00:36:11.272Z,94.64
2018-05-27T00:37:10.991Z,95.31
2018-05-27T00:38:11.263Z,95.21
2018-05-27T00:39:10.986Z,95.21
2018-05-27T00:40:11.263Z,94.49
2018-05-27T00:41:11.246Z,95.26
2018-05-27T00:42:10.994Z,94.49
2018-05-27T00:43:11.222Z,94.79
2018-05-27T00:44:11.227Z,94.69
2018-05-27T00:45:10.971Z,94.49
2018-05-27T00:46:11.483Z,94.49
2018-05-27T00:47:11.225Z,94.12
2018-05-27T00:48:11.204Z,94.49
2018-05-27T00:49:11.223Z,94.31
2018-05-27T00:50:11.216Z,94.31
2018-05-27T00:51:11.219Z,94.21
2018-05-27T00:52:11.193Z,94.4
2018-05-27T00:53:11.207Z,94.45
2018-05-27T00:54:11.178Z,94.54
2018-05-27T00:55:11.196Z,94.69
2018-05-27T00:56:11.175Z,94.12
2018-05-27T00:57:11.192Z,94.16
2018-05-27T00:58:11.191Z,93.92
2018-05-27T00:59:11.160Z,94.16
2018-05-27T01:00:11.158Z,93.68
2018-05-27T01:01:10.914Z,93.59
2018-05-27T01:02:11.169Z,93.49
2018-05-27T01:03:11.172Z,93.97
2018-05-27T01:04:11.147Z,93.59
2018-05-27T01:05:10.907Z,93.87
2018-05-27T01:06:10.882Z,93.39
2018-05-27T01:07:11.151Z,93.97
2018-05-27T01:08:11.125Z,93.59
2018-05-27T01:09:11.141Z,92.91
2018-05-27T01:10:11.123Z,92.82
2018-05-27T01:11:11.135Z,93.01
2018-05-27T01:12:11.112Z,93.1
2018-05-27T01:13:11.113Z,93.2
2018-05-27T01:14:11.104Z,93.1
2018-05-27T01:15:11.166Z,93.2
2018-05-27T01:16:11.115Z,93.1
2018-05-27T01:17:11.353Z,93.2
2018-05-27T01:18:11.087Z,93.01
2018-05-27T01:19:11.094Z,93.44
2018-05-27T01:20:11.102Z,93.63
2018-05-27T01:21:10.829Z,93.73
2018-05-27T01:22:11.077Z,93.92
2018-05-27T01:23:11.089Z,93.73
2018-05-27T01:24:11.074Z,93.63
2018-05-27T01:25:11.084Z,93.44
2018-05-27T01:26:11.058Z,93.92
2018-05-27T01:27:11.075Z,94.02
2018-05-27T01:28:10.797Z,94.31
2018-05-27T01:29:11.052Z,94.59
2018-05-27T01:30:11.042Z,94.12
2018-05-27T01:31:11.060Z,94.49
2018-05-27T01:32:10.797Z,94.49
2018-05-27T01:33:11.042Z,93.82
2018-05-27T01:34:10.775Z,94.12
2018-05-27T01:35:11.033Z,94.49
2018-05-27T01:36:10.782Z,94.4
2018-05-27T01:37:11.024Z,94.69
2018-05-27T01:38:11.030Z,95.17
2018-05-27T01:39:11.015Z,96.51
2018-05-27T01:40:11.030Z,97.47
2018-05-27T01:41:11.017Z,98.1
2018-05-27T01:42:11.017Z,98.77
2018-05-27T01:43:10.992Z,99.05
2018-05-27T01:44:11.020Z,99.19
2018-05-27T01:45:10.999Z,99.48
2018-05-27T01:46:10.742Z,99.19
2018-05-27T01:47:10.724Z,98.96
2018-05-27T01:48:11.250Z,98.86
2018-05-27T01:49:10.721Z,98.28
2018-05-27T01:50:10.964Z,98.47
2018-05-27T01:51:10.959Z,97.42
2018-05-27T01:52:10.977Z,97.42
2018-05-27T01:53:10.965Z,97.61
2018-05-27T01:54:10.967Z,96.75
2018-05-27T01:55:10.689Z,97.04
2018-05-27T01:56:10.699Z,96.42
2018-05-27T01:57:10.681Z,96.22
2018-05-27T01:58:10.691Z,96.13
2018-05-27T01:59:10.925Z,95.94
2018-05-27T02:00:10.942Z,95.84
2018-05-27T02:01:10.929Z,95.17
2018-05-27T02:02:10.935Z,95.36
2018-05-27T02:03:10.653Z,94.79
2018-05-27T02:04:10.900Z,94.5
2018-05-27T02:05:10.911Z,94.4
2018-05-27T02:06:10.917Z,94.21
2018-05-27T02:07:10.906Z,94.21
2018-05-27T02:08:10.885Z,93.64
2018-05-27T02:09:10.891Z,93.35
2018-05-27T02:10:10.874Z,93.26
2018-05-27T02:11:10.629Z,93.16
2018-05-27T02:12:10.865Z,93.21
2018-05-27T02:13:10.871Z,93.12
2018-05-27T02:14:10.871Z,92.06
2018-05-27T02:15:10.851Z,92.35
2018-05-27T02:16:10.604Z,92.44
2018-05-27T02:17:10.600Z,92.73
2018-05-27T02:18:10.594Z,92.54
2018-05-27T02:19:10.830Z,92.44
2018-05-27T02:20:10.825Z,92.63
2018-05-27T02:21:10.842Z,92.63
2018-05-27T02:22:10.835Z,91.58
2018-05-27T02:23:10.827Z,91.77
2018-05-27T02:24:10.811Z,91.58
2018-05-27T02:25:10.813Z,91.77
2018-05-27T02:26:10.539Z,92.16
2018-05-27T02:27:10.808Z,91.97
2018-05-27T02:28:10.796Z,91.87
2018-05-27T02:29:10.539Z,91.97
2018-05-27T02:30:10.521Z,91.97
2018-05-27T02:31:10.531Z,91.87
2018-05-27T02:32:10.770Z,91.87
2018-05-27T02:33:10.774Z,91.49
2018-05-27T02:34:10.760Z,91.58
2018-05-27T02:35:10.773Z,91.49
2018-05-27T02:36:10.763Z,91.39
2018-05-27T02:37:10.752Z,91.49
2018-05-27T02:38:10.481Z,91.49
2018-05-27T02:39:10.753Z,91.2
2018-05-27T02:40:10.730Z,91.2
2018-05-27T02:41:10.735Z,91.2
2018-05-27T02:42:10.714Z,91.49
2018-05-27T02:43:10.736Z,91.3
2018-05-27T02:44:10.702Z,91.39
2018-05-27T02:45:10.467Z,91.3
2018-05-27T02:46:10.448Z,91.11
2018-05-27T02:47:10.709Z,91.3
2018-05-27T02:48:10.681Z,91.3
2018-05-27T02:49:10.682Z,91.3
2018-05-27T02:50:10.685Z,91.58
2018-05-27T02:51:10.685Z,91.11
2018-05-27T02:52:10.684Z,91.2
2018-05-27T02:53:10.663Z,91.39
2018-05-27T02:54:10.654Z,91.25
2018-05-27T02:55:10.644Z,91.34
2018-05-27T02:56:10.660Z,91.2
2018-05-27T02:57:10.643Z,91.2
2018-05-27T02:58:10.655Z,91.53
2018-05-27T02:59:10.626Z,91.2
2018-05-27T03:00:10.641Z,91.39
2018-05-27T03:01:10.614Z,91.49
2018-05-27T03:02:10.641Z,91.3
2018-05-27T03:03:10.608Z,91.2
2018-05-27T03:04:10.622Z,91.39
2018-05-27T03:05:10.608Z,91.2
2018-05-27T03:06:10.589Z,91.39
2018-05-27T03:07:10.614Z,91.3
2018-05-27T03:08:10.341Z,91.39
2018-05-27T03:09:10.337Z,91.39
2018-05-27T03:10:10.571Z,91.3
2018-05-27T03:11:10.577Z,91.3
2018-05-27T03:12:10.576Z,91.2
2018-05-27T03:13:10.566Z,91.11
2018-05-27T03:14:10.566Z,91.2
2018-05-27T03:15:10.555Z,91.49
2018-05-27T03:16:10.307Z,91.39
2018-05-27T03:17:10.546Z,91.11
2018-05-27T03:18:10.538Z,91.01
2018-05-27T03:19:10.551Z,91.11
2018-05-27T03:20:10.520Z,91.11
2018-05-27T03:21:10.267Z,91.3
2018-05-27T03:22:10.514Z,91.11
2018-05-27T03:23:10.526Z,91.01
2018-05-27T03:24:10.515Z,91.11
2018-05-27T03:25:10.497Z,91.3
2018-05-27T03:26:10.238Z,91.2
2018-05-27T03:27:10.230Z,91.49
2018-05-27T03:28:10.494Z,91.11
2018-05-27T03:29:10.475Z,91.3
2018-05-27T03:30:10.471Z,91.49
2018-05-27T03:31:10.489Z,91.2
2018-05-27T03:32:10.454Z,91.3
2018-05-27T03:33:10.468Z,91.3
2018-05-27T03:34:10.445Z,91.11
2018-05-27T03:35:10.459Z,91.44
2018-05-27T03:36:10.435Z,91.11
2018-05-27T03:37:10.435Z,91.49
2018-05-27T03:38:10.429Z,91.44
2018-05-27T03:39:10.442Z,91.11
2018-05-27T03:40:10.435Z,91.11
2018-05-27T03:41:10.414Z,91.72
2018-05-27T03:42:10.152Z,91.92
2018-05-27T03:43:10.406Z,91.25
2018-05-27T03:44:10.414Z,91.15
2018-05-27T03:45:10.399Z,90.96
2018-05-27T03:46:10.408Z,91.25
2018-05-27T03:47:10.379Z,91.44
2018-05-27T03:48:10.392Z,91.05
2018-05-27T03:49:10.369Z,91.34
2018-05-27T03:50:10.386Z,91.15
2018-05-27T03:51:10.106Z,91.15
2018-05-27T03:52:10.380Z,91.15
2018-05-27T03:53:10.365Z,91.19
2018-05-27T03:54:10.369Z,91.29
2018-05-27T03:55:10.087Z,91.39
2018-05-27T03:56:10.358Z,91.63
2018-05-27T03:57:10.339Z,91.34
2018-05-27T03:58:10.327Z,90.86
2018-05-27T03:59:10.322Z,92.1
2018-05-27T04:00:10.343Z,91.72
2018-05-27T04:01:10.329Z,91.57
2018-05-27T04:02:10.333Z,91.67
2018-05-27T04:03:10.306Z,91.67
2018-05-27T04:04:10.065Z,91.72
2018-05-27T04:05:10.299Z,91.33
2018-05-27T04:06:10.322Z,91.52
2018-05-27T04:07:10.295Z,91.38
2018-05-27T04:08:10.313Z,91.96
2018-05-27T04:09:10.310Z,92.05
2018-05-27T04:10:10.304Z,92.05
2018-05-27T04:11:10.284Z,91.76
2018-05-27T04:12:10.025Z,92.24
2018-05-27T04:13:10.294Z,91.47
2018-05-27T04:14:10.293Z,91.52
2018-05-27T04:15:10.299Z,92.1
2018-05-27T04:16:10.267Z,91.9
2018-05-27T04:17:10.287Z,92.77
2018-05-27T04:18:10.264Z,90.31
2018-05-27T04:19:10.282Z,90.51
2018-05-27T04:20:10.259Z,91.18
2018-05-27T04:21:10.273Z,91.18
2018-05-27T04:22:10.017Z,91.52
2018-05-27T04:23:10.254Z,91.52
2018-05-27T04:24:10.524Z,90.98
2018-05-27T04:25:10.265Z,90.41
2018-05-27T04:26:10.268Z,89.25
2018-05-27T04:27:10.247Z,89.49
2018-05-27T04:28:09.994Z,89.2
2018-05-27T04:29:10.002Z,89.58
2018-05-27T04:30:10.265Z,88.14
2018-05-27T04:31:10.005Z,87.7
2018-05-27T04:32:10.243Z,87.7
2018-05-27T04:33:10.259Z,89.24
2018-05-27T04:34:10.244Z,88.76
2018-05-27T04:35:10.260Z,88.04
2018-05-27T04:36:10.244Z,86.11
2018-05-27T04:37:10.262Z,86.15
2018-05-27T04:38:10.243Z,86.54
2018-05-27T04:39:10.265Z,86.73
2018-05-27T04:40:10.243Z,85.77
2018-05-27T04:41:10.252Z,85.57
2018-05-27T04:42:10.246Z,84.65
2018-05-27T04:43:10.263Z,84.36
2018-05-27T04:44:10.266Z,85.61
2018-05-27T04:45:10.252Z,87.06
2018-05-27T04:46:10.253Z,85.08
2018-05-27T04:47:10.270Z,85.75
2018-05-27T04:48:10.256Z,84.83
2018-05-27T04:49:10.271Z,84.74
2018-05-27T04:50:10.256Z,82.26
2018-05-27T04:51:10.278Z,82.11
2018-05-27T04:52:10.262Z,79.89
2018-05-27T04:53:10.283Z,80.41
2018-05-27T04:54:10.270Z,80.61
2018-05-27T04:55:10.290Z,80.36
2018-05-27T04:56:10.278Z,79.1
2018-05-27T04:57:10.283Z,78.61
2018-05-27T04:58:10.281Z,78.36
2018-05-27T04:59:10.062Z,78.36
2018-05-27T05:00:10.289Z,77.59
2018-05-27T05:01:10.309Z,78.11
2018-05-27T05:02:10.317Z,77.82
2018-05-27T05:03:10.323Z,77.76
2018-05-27T05:04:10.310Z,77.42
2018-05-27T05:05:10.324Z,74.6
2018-05-27T05:06:10.324Z,72.22
2018-05-27T05:07:10.342Z,72.51
2018-05-27T05:08:10.326Z,71.15
2018-05-27T05:09:10.349Z,71.58
2018-05-27T05:10:10.335Z,71.28
2018-05-27T05:11:10.363Z,71.67
2018-05-27T05:12:10.353Z,70.7
2018-05-27T05:13:10.366Z,70.06
2018-05-27T05:14:10.119Z,69.38
2018-05-27T05:15:10.369Z,67.73
2018-05-27T05:16:10.370Z,67.92
2018-05-27T05:17:10.389Z,66.95
2018-05-27T05:18:10.402Z,67.05
2018-05-27T05:19:10.421Z,66.76
2018-05-27T05:20:10.402Z,66.76
2018-05-27T05:21:10.415Z,67.05
2018-05-27T05:22:10.485Z,67.02
2018-05-27T05:23:10.434Z,67.02
2018-05-27T05:24:10.429Z,66.82
2018-05-27T05:25:10.451Z,67.11
2018-05-27T05:26:10.444Z,66.63
2018-05-27T05:27:10.469Z,66.63
2018-05-27T05:28:10.450Z,66.53
2018-05-27T05:29:10.460Z,67.11
2018-05-27T05:30:10.211Z,66.92
2018-05-27T05:31:10.243Z,67.5
2018-05-27T05:32:10.500Z,65.79
2018-05-27T05:33:10.488Z,64.62
2018-05-27T05:34:10.494Z,64.85
2018-05-27T05:35:10.500Z,64.85
2018-05-27T05:36:10.525Z,64.26
2018-05-27T05:37:10.518Z,63.78
2018-05-27T05:38:10.520Z,63.71
2018-05-27T05:39:10.551Z,63.62
2018-05-27T05:40:10.542Z,63.26
2018-05-27T05:41:10.562Z,62
2018-05-27T05:42:10.299Z,60.86
2018-05-27T05:43:10.582Z,60.21
2018-05-27T05:44:10.573Z,59.23
2018-05-27T05:45:10.586Z,57.61
2018-05-27T05:46:10.589Z,56.93
2018-05-27T05:47:10.354Z,56.96
2018-05-27T05:48:10.362Z,55.99
2018-05-27T05:49:10.616Z,56.93
2018-05-27T05:50:10.616Z,57.78
2018-05-27T05:51:10.625Z,58.43
2018-05-27T05:52:10.671Z,58.62
2018-05-27T05:53:10.648Z,58.79
2018-05-27T05:54:10.414Z,60.25
2018-05-27T05:55:10.674Z,59.67
2018-05-27T05:56:10.433Z,59.31
2018-05-27T05:57:10.941Z,58.53
2018-05-27T05:58:10.708Z,57.59
2018-05-27T05:59:10.701Z,57.2
2018-05-27T06:00:10.727Z,58.43
2018-05-27T06:01:10.813Z,58.72
2018-05-27T06:02:10.751Z,58.14
2018-05-27T06:03:10.734Z,57.68
2018-05-27T06:04:10.507Z,56.84
2018-05-27T06:05:10.760Z,56.25
2018-05-27T06:06:10.763Z,55.4
2018-05-27T06:07:10.773Z,55.5
2018-05-27T06:08:10.803Z,55.4
2018-05-27T06:09:10.799Z,55.23
2018-05-27T06:10:10.822Z,55.13
2018-05-27T06:11:10.815Z,54.43
2018-05-27T06:12:10.849Z,53.48
2018-05-27T06:13:10.832Z,54.19
2018-05-27T06:14:10.864Z,54.36
2018-05-27T06:15:10.856Z,54.26
2018-05-27T06:16:10.883Z,54.36
2018-05-27T06:17:10.899Z,54.26
2018-05-27T06:18:10.914Z,54.38
2018-05-27T06:19:10.898Z,53.8
2018-05-27T06:20:10.908Z,52.66
2018-05-27T06:21:10.946Z,51.51
2018-05-27T06:22:10.949Z,50.36
2018-05-27T06:23:10.961Z,50.02
2018-05-27T06:24:10.699Z,49.07
2018-05-27T06:25:10.721Z,48.31
2018-05-27T06:26:10.976Z,47.16
2018-05-27T06:27:11.006Z,47.08
2018-05-27T06:28:11.254Z,44.88
2018-05-27T06:29:11.026Z,43.99
2018-05-27T06:30:11.046Z,44.31
2018-05-27T06:31:11.037Z,42.94
2018-05-27T06:32:11.252Z,43.26
2018-05-27T06:33:11.080Z,43.04
2018-05-27T06:34:11.100Z,43.13
2018-05-27T06:35:11.088Z,42.66
2018-05-27T06:36:11.103Z,42.47
2018-05-27T06:37:11.132Z,41.88
2018-05-27T06:38:11.150Z,42.47
2018-05-27T06:39:11.170Z,41.88
2018-05-27T06:40:11.165Z,41.88
2018-05-27T06:41:11.185Z,40.92
2018-05-27T06:42:11.208Z,40.53
2018-05-27T06:43:11.202Z,39.66
2018-05-27T06:44:10.974Z,39.27
2018-05-27T06:45:10.973Z,39.37
2018-05-27T06:46:11.260Z,38.78
2018-05-27T06:47:11.255Z,39.27
2018-05-27T06:48:12.550Z,38.68
2018-05-27T06:49:11.310Z,39.27
2018-05-27T06:50:11.313Z,38.56
2018-05-27T06:51:11.327Z,39.06
2018-05-27T06:52:11.328Z,39.45
2018-05-27T06:53:11.363Z,39.23
2018-05-27T06:54:11.111Z,39.23
2018-05-27T06:55:11.375Z,38.93
2018-05-27T06:56:11.416Z,39.03
2018-05-27T06:57:11.404Z,39.43
2018-05-27T06:58:11.440Z,38.56
2018-05-27T06:59:11.436Z,38.29
2018-05-27T07:00:11.210Z,37.72
2018-05-27T07:01:11.465Z,37.44
2018-05-27T07:02:11.232Z,36
2018-05-27T07:03:11.509Z,35.92
2018-05-27T07:04:11.529Z,35.43
2018-05-27T07:05:11.548Z,35.27
2018-05-27T07:06:11.542Z,34.1
2018-05-27T07:07:11.572Z,32.73
2018-05-27T07:08:11.321Z,33.23
2018-05-27T07:09:11.611Z,32.85
2018-05-27T07:10:11.606Z,32.65
2018-05-27T07:11:11.642Z,32.37
2018-05-27T07:12:11.692Z,31.99
2018-05-27T07:13:11.678Z,30.13
2018-05-27T07:14:11.680Z,29.05
2018-05-27T07:15:11.694Z,28.85
2018-05-27T07:16:11.707Z,29.06
2018-05-27T07:17:11.800Z,29.06
2018-05-27T07:18:11.503Z,28.75
2018-05-27T07:19:11.762Z,28.94
2018-05-27T07:20:11.776Z,28.66
2018-05-27T07:21:11.813Z,28.07
2018-05-27T07:22:11.812Z,28.18
2018-05-27T07:23:11.842Z,27.89
2018-05-27T07:24:11.846Z,27.39
2018-05-27T07:25:11.881Z,27.49
2018-05-27T07:26:11.878Z,28.08
2018-05-27T07:27:11.921Z,28.08
2018-05-27T07:28:12.003Z,27.79
2018-05-27T07:29:11.950Z,27.4
2018-05-27T07:30:11.965Z,27.02
2018-05-27T07:31:11.971Z,26.53
2018-05-27T07:32:12.071Z,27.14
2018-05-27T07:33:12.022Z,25.73
2018-05-27T07:34:12.039Z,25.65
2018-05-27T07:35:12.041Z,25.95
2018-05-27T07:36:12.054Z,25.84
2018-05-27T07:37:12.075Z,25.73
2018-05-27T07:38:12.117Z,25.84
2018-05-27T07:39:12.117Z,25.55
2018-05-27T07:40:12.146Z,24.96
2018-05-27T07:41:12.142Z,25.04
2018-05-27T07:42:12.187Z,25.14
2018-05-27T07:43:12.182Z,25.24
2018-05-27T07:44:11.960Z,25.13
2018-05-27T07:45:12.228Z,25.82
2018-05-27T07:46:12.253Z,25.91
2018-05-27T07:47:12.260Z,26.2
2018-05-27T07:48:12.271Z,26.31
2018-05-27T07:49:12.305Z,26.01
2018-05-27T07:50:12.065Z,26.31
2018-05-27T07:51:12.323Z,26.1
2018-05-27T07:52:12.350Z,25.52
2018-05-27T07:53:12.353Z,25.44
2018-05-27T07:54:12.393Z,24.93
2018-05-27T07:55:12.393Z,25.82
2018-05-27T07:56:12.429Z,26.12
2018-05-27T07:57:12.431Z,25.92
2018-05-27T07:58:12.573Z,26.21
2018-05-27T07:59:12.460Z,26.32
2018-05-27T08:00:12.497Z,25.54
2018-05-27T08:01:12.496Z,24.45
2018-05-27T08:02:12.535Z,24.26
2018-05-27T08:03:12.545Z,25.33
2018-05-27T08:04:12.569Z,26.1
2018-05-27T08:05:12.568Z,25.51
2018-05-27T08:06:12.586Z,26.1
2018-05-27T08:07:12.802Z,26.2
2018-05-27T08:08:12.644Z,26.31
2018-05-27T08:09:12.405Z,25.91
2018-05-27T08:10:12.414Z,25.71
2018-05-27T08:11:12.694Z,25.91
2018-05-27T08:12:12.721Z,25.4
2018-05-27T08:13:12.718Z,25.91
2018-05-27T08:14:12.499Z,25.91
2018-05-27T08:15:12.755Z,25.61
2018-05-27T08:16:12.794Z,25.92
2018-05-27T08:17:12.796Z,26.02
2018-05-27T08:18:12.832Z,25.52
2018-05-27T08:19:12.845Z,25.63
2018-05-27T08:20:12.613Z,25.62
2018-05-27T08:21:12.871Z,25.14
2018-05-27T08:22:12.888Z,25.44
2018-05-27T08:23:12.921Z,24.73
2018-05-27T08:24:12.944Z,24.63
2018-05-27T08:25:12.707Z,24.73
2018-05-27T08:26:12.969Z,24.45
2018-05-27T08:27:12.997Z,25.33
2018-05-27T08:28:12.745Z,24.52
2018-05-27T08:29:13.035Z,24.62
2018-05-27T08:30:13.036Z,25.1
2018-05-27T08:31:13.079Z,25.39
2018-05-27T08:32:13.073Z,26.18
2018-05-27T08:33:13.109Z,25.97
2018-05-27T08:34:13.106Z,25.98
2018-05-27T08:35:12.876Z,27.06
2018-05-27T08:36:12.887Z,27.24
2018-05-27T08:37:12.923Z,27.73
2018-05-27T08:38:13.175Z,27.33
2018-05-27T08:39:13.207Z,28.21
2018-05-27T08:40:13.228Z,28.1
2018-05-27T08:41:13.243Z,28.69
2018-05-27T08:42:13.250Z,28.88
2018-05-27T08:43:13.274Z,28.19
2018-05-27T08:44:13.280Z,28.88
2018-05-27T08:45:13.315Z,29.47
2018-05-27T08:46:13.309Z,29.65
2018-05-27T08:47:13.346Z,29.93
2018-05-27T08:48:13.343Z,29.93
2018-05-27T08:49:13.128Z,30.02
2018-05-27T08:50:13.118Z,30.49
2018-05-27T08:51:13.397Z,30.79
2018-05-27T08:52:13.150Z,31.09
2018-05-27T08:53:13.440Z,31.36
2018-05-27T08:54:13.198Z,32.43
2018-05-27T08:55:13.199Z,32.31
2018-05-27T08:56:13.461Z,32.81
2018-05-27T08:57:13.530Z,33.17
2018-05-27T08:58:13.507Z,33.65
2018-05-27T08:59:13.511Z,33.74
2018-05-27T09:00:13.275Z,34.01
2018-05-27T09:01:13.642Z,35.37
2018-05-27T09:02:13.564Z,35.86
2018-05-27T09:03:13.561Z,36.24
2018-05-27T09:04:13.562Z,36.32
2018-05-27T09:05:13.591Z,37
2018-05-27T09:06:13.328Z,37.37
2018-05-27T09:07:13.605Z,37.35
2018-05-27T09:08:13.603Z,37.45
2018-05-27T09:09:13.633Z,37.93
2018-05-27T09:10:13.639Z,38.42
2018-05-27T09:11:13.634Z,38.59
2018-05-27T09:12:13.639Z,39.18
2018-05-27T09:13:13.649Z,39.55
2018-05-27T09:14:13.421Z,39.84
2018-05-27T09:15:13.776Z,39.75
2018-05-27T09:16:13.440Z,40.23
2018-05-27T09:17:13.685Z,40.41
2018-05-27T09:18:13.455Z,40.72
2018-05-27T09:19:13.706Z,40.6
2018-05-27T09:20:13.729Z,40.41
2018-05-27T09:21:13.732Z,40.41
2018-05-27T09:22:13.757Z,40.21
2018-05-27T09:23:13.745Z,40.31
2018-05-27T09:24:13.760Z,40.7
2018-05-27T09:25:13.494Z,40.39
2018-05-27T09:26:13.753Z,40.09
2018-05-27T09:27:13.775Z,40.78
2018-05-27T09:28:13.792Z,40.66
2018-05-27T09:29:13.775Z,41.13
2018-05-27T09:30:13.543Z,41.13
2018-05-27T09:31:13.800Z,41.22
2018-05-27T09:32:13.822Z,41.13
2018-05-27T09:33:13.571Z,41.32
2018-05-27T09:34:13.827Z,41.52
2018-05-27T09:35:13.562Z,41.71
2018-05-27T09:36:13.847Z,41.4
2018-05-27T09:37:13.836Z,41.5
2018-05-27T09:38:13.858Z,42.28
2018-05-27T09:39:13.956Z,42.38
2018-05-27T09:40:13.865Z,42.47
2018-05-27T09:41:13.860Z,42.28
2018-05-27T09:42:13.606Z,41.99
2018-05-27T09:43:13.878Z,42.08
2018-05-27T09:44:13.888Z,42.74
2018-05-27T09:45:14.120Z,42.16
2018-05-27T09:46:13.881Z,42.74
2018-05-27T09:47:13.902Z,43.23
2018-05-27T09:48:13.911Z,43.04
2018-05-27T09:49:13.919Z,44.01
2018-05-27T09:50:13.903Z,44.2
2018-05-27T09:51:14.005Z,43.91
2018-05-27T09:52:13.920Z,43.33
2018-05-27T09:53:13.939Z,42.74
2018-05-27T09:54:13.961Z,43.81
2018-05-27T09:55:13.952Z,43.52
2018-05-27T09:56:13.959Z,43.71
2018-05-27T09:57:13.941Z,43.62
2018-05-27T09:58:14.127Z,42.84
2018-05-27T09:59:13.986Z,42.35
2018-05-27T10:00:13.987Z,42.86
2018-05-27T10:01:13.983Z,42.47
2018-05-27T10:02:13.977Z,42.76
2018-05-27T10:03:13.729Z,43.54
2018-05-27T10:04:13.729Z,43.23
2018-05-27T10:05:14.003Z,42.45
2018-05-27T10:06:13.989Z,43.04
2018-05-27T10:07:14.012Z,42.35
2018-05-27T10:08:14.024Z,42.25
2018-05-27T10:09:14.008Z,42.16
2018-05-27T10:10:14.031Z,42.25
2018-05-27T10:11:13.772Z,42.55
2018-05-27T10:12:14.041Z,43.04
2018-05-27T10:13:14.027Z,42.94
2018-05-27T10:14:14.031Z,42.45
2018-05-27T10:15:14.048Z,42.35
2018-05-27T10:16:14.076Z,42.35
2018-05-27T10:17:14.066Z,42.16
2018-05-27T10:18:14.050Z,41.96
2018-05-27T10:19:14.070Z,41.28
2018-05-27T10:20:14.086Z,41.11
2018-05-27T10:21:14.070Z,41.11
2018-05-27T10:22:14.092Z,42.18
2018-05-27T10:23:14.076Z,42.08
2018-05-27T10:24:14.104Z,41.5
2018-05-27T10:25:14.097Z,41.2
2018-05-27T10:26:14.116Z,41.11
2018-05-27T10:27:14.111Z,41.4
2018-05-27T10:28:14.123Z,40.91
2018-05-27T10:29:14.109Z,40.23
2018-05-27T10:30:14.120Z,40.13
2018-05-27T10:31:14.148Z,40.45
2018-05-27T10:32:14.142Z,40.52
2018-05-27T10:33:14.146Z,39.75
2018-05-27T10:34:14.144Z,40.13
2018-05-27T10:35:14.152Z,40.23
2018-05-27T10:36:14.150Z,39.65
2018-05-27T10:37:14.419Z,39.55
2018-05-27T10:38:14.168Z,39.55
2018-05-27T10:39:14.216Z,38.79
2018-05-27T10:40:14.164Z,38.89
2018-05-27T10:41:14.190Z,38.4
2018-05-27T10:42:14.178Z,38.67
2018-05-27T10:43:14.195Z,38.38
2018-05-27T10:44:13.936Z,38.89
2018-05-27T10:45:14.210Z,38.67
2018-05-27T10:46:14.195Z,38.96
2018-05-27T10:47:13.961Z,37.71
2018-05-27T10:48:14.237Z,38.1
2018-05-27T10:49:13.994Z,37.81
2018-05-27T10:50:14.216Z,37.62
2018-05-27T10:51:14.239Z,37.13
2018-05-27T10:52:14.241Z,37.13
2018-05-27T10:53:14.253Z,37.13
2018-05-27T10:54:14.240Z,37.43
2018-05-27T10:55:14.271Z,36.94
2018-05-27T10:56:13.995Z,37.15
2018-05-27T10:57:14.289Z,37.05
2018-05-27T10:58:14.005Z,36.86
2018-05-27T10:59:14.279Z,37.05
2018-05-27T11:00:14.274Z,37.27
2018-05-27T11:01:14.294Z,37.27
2018-05-27T11:02:14.307Z,37.37
2018-05-27T11:03:14.545Z,36.19
2018-05-27T11:04:14.292Z,36.88
2018-05-27T11:05:14.305Z,36.88
2018-05-27T11:06:14.326Z,36.02
2018-05-27T11:07:14.321Z,34.94
2018-05-27T11:08:14.340Z,35.53
2018-05-27T11:09:14.320Z,35.16
2018-05-27T11:10:14.346Z,34.47
2018-05-27T11:11:14.338Z,34.38
2018-05-27T11:12:14.393Z,33.69
2018-05-27T11:13:14.106Z,33.5
2018-05-27T11:14:14.357Z,34.38
2018-05-27T11:15:14.113Z,34.28
2018-05-27T11:16:14.374Z,34.18
2018-05-27T11:17:14.133Z,34.77
2018-05-27T11:18:14.152Z,34.77
2018-05-27T11:19:14.387Z,35.36
2018-05-27T11:20:14.391Z,34.68
2018-05-27T11:21:14.142Z,34.88
2018-05-27T11:22:14.163Z,34.39
2018-05-27T11:23:14.411Z,34.48
2018-05-27T11:24:14.432Z,34.39
2018-05-27T11:25:14.425Z,34.48
2018-05-27T11:26:14.448Z,34.29
2018-05-27T11:27:14.447Z,34.09
2018-05-27T11:28:14.463Z,33.04
2018-05-27T11:29:14.444Z,32.84
2018-05-27T11:30:14.473Z,32.65
2018-05-27T11:31:14.221Z,32.26
2018-05-27T11:32:14.494Z,32.16
2018-05-27T11:33:14.484Z,31.29
2018-05-27T11:34:14.484Z,31.1
2018-05-27T11:35:14.501Z,30.22
2018-05-27T11:36:14.513Z,30.33
2018-05-27T11:37:14.502Z,31.01
2018-05-27T11:38:14.536Z,31.51
2018-05-27T11:39:14.265Z,31.7
2018-05-27T11:40:14.540Z,31.59
2018-05-27T11:41:14.273Z,31.41
2018-05-27T11:42:14.554Z,31.1
2018-05-27T11:43:14.541Z,31.88
2018-05-27T11:44:14.570Z,31.49
2018-05-27T11:45:14.555Z,32.07
2018-05-27T11:46:14.591Z,32.27
2018-05-27T11:47:14.600Z,32.35
2018-05-27T11:48:14.596Z,32.75
2018-05-27T11:49:14.581Z,33.04
2018-05-27T11:50:14.611Z,32.94
2018-05-27T11:51:14.603Z,33.14
2018-05-27T11:52:14.606Z,33.62
2018-05-27T11:53:14.614Z,34.48
2018-05-27T11:54:14.656Z,34.58
2018-05-27T11:55:14.650Z,34.58
2018-05-27T11:56:14.655Z,34.48
2018-05-27T11:57:14.634Z,34.88
2018-05-27T11:58:14.665Z,34.86
2018-05-27T11:59:14.660Z,34.77
2018-05-27T12:00:14.675Z,34.77
2018-05-27T12:01:14.661Z,34.77
2018-05-27T12:02:14.692Z,34.77
2018-05-27T12:03:14.677Z,34.77
2018-05-27T12:04:14.704Z,34.77
2018-05-27T12:05:14.709Z,35.06
2018-05-27T12:06:14.714Z,35.06
2018-05-27T12:07:14.713Z,34.96
2018-05-27T12:08:14.703Z,35.16
2018-05-27T12:09:15.086Z,35.16
2018-05-27T12:10:14.743Z,34.86
2018-05-27T12:11:14.479Z,35.27
2018-05-27T12:12:14.754Z,34.78
2018-05-27T12:13:14.748Z,34.39
2018-05-27T12:14:14.761Z,33.23
2018-05-27T12:15:14.746Z,33.82
2018-05-27T12:16:14.773Z,33.54
2018-05-27T12:17:14.762Z,33.05
2018-05-27T12:18:14.796Z,33.17
2018-05-27T12:19:14.787Z,33.26
2018-05-27T12:20:14.798Z,33.09
2018-05-27T12:21:14.801Z,33.09
2018-05-27T12:22:14.796Z,33.09
2018-05-27T12:23:14.816Z,33.29
2018-05-27T12:24:14.851Z,33.38
2018-05-27T12:25:14.834Z,33.67
2018-05-27T12:26:14.569Z,33.56
2018-05-27T12:27:14.846Z,33.75
2018-05-27T12:28:14.858Z,33.74
2018-05-27T12:29:14.852Z,34.23
2018-05-27T12:30:14.872Z,34.8
2018-05-27T12:31:14.866Z,35.19
2018-05-27T12:32:14.886Z,34.99
2018-05-27T12:33:14.881Z,35.19
2018-05-27T12:34:14.900Z,35.28
2018-05-27T12:35:14.903Z,35.48
2018-05-27T12:36:14.916Z,35.21
2018-05-27T12:37:14.904Z,35.21
2018-05-27T12:38:14.911Z,35.3
2018-05-27T12:39:14.939Z,34.91
2018-05-27T12:40:14.942Z,34.91
2018-05-27T12:41:14.951Z,34.33
2018-05-27T12:42:14.993Z,33.74
2018-05-27T12:43:14.962Z,33.74
2018-05-27T12:44:14.968Z,33.36
2018-05-27T12:45:14.722Z,32.68
2018-05-27T12:46:14.983Z,31.8
2018-05-27T12:47:14.993Z,32.19
2018-05-27T12:48:14.991Z,31.21
2018-05-27T12:49:15.029Z,32.68
2018-05-27T12:50:14.752Z,40.48
2018-05-27T12:51:15.020Z,47.11
2018-05-27T12:52:15.010Z,48.65
2018-05-27T12:53:15.037Z,49.98
2018-05-27T12:54:14.769Z,53.46
2018-05-27T12:55:15.042Z,60.62